Time;durP1;ratioP1;P1;durP2;ratioP2;P2;SDS_P1;SDS_P2;PMS_P1;PMS_P2;Temp;Humidity;BMP_temperature;BMP_pressure;BME280_temperature;BME280_humidity;BME280_pressure;Samples;Min_cycle;Max_cycle;Signal;HPM_P1;HPM_P2
2021/01/14 00:01:15;;;;;;;1.63;0.70;;;8.00;73.30;;;;;;5092102;28;20454;-79
2021/01/14 00:03:41;;;;;;;0.83;0.80;;;8.00;73.50;;;;;;5092679;28;20795;-78
2021/01/14 00:06:08;;;;;;;0.80;0.80;;;8.00;73.70;;;;;;5092402;28;20465;-78
2021/01/14 00:08:35;;;;;;;0.93;0.90;;;8.00;73.20;;;;;;5091961;28;20479;-78
2021/01/14 00:11:03;;;;;;;1.67;0.70;;;8.00;73.40;;;;;;5092488;28;20448;-79
2021/01/14 00:13:29;;;;;;;0.70;0.70;;;7.90;72.50;;;;;;5092224;28;20459;-79
2021/01/14 00:15:56;;;;;;;1.20;1.13;;;7.80;72.60;;;;;;5091069;28;20503;-77
2021/01/14 00:18:22;;;;;;;0.87;0.80;;;7.80;72.90;;;;;;5091982;28;20546;-76
2021/01/14 00:20:49;;;;;;;0.80;0.80;;;7.80;73.00;;;;;;5092347;28;20976;-77
2021/01/14 00:23:15;;;;;;;0.80;0.73;;;7.80;73.10;;;;;;5092697;28;20446;-77
2021/01/14 00:25:42;;;;;;;1.00;0.67;;;7.90;72.90;;;;;;5092305;28;20458;-76
2021/01/14 00:28:09;;;;;;;1.00;0.90;;;7.90;72.90;;;;;;5092293;28;20464;-77
2021/01/14 00:30:37;;;;;;;0.87;0.80;;;7.80;72.30;;;;;;5092263;28;20448;-78
2021/01/14 00:33:03;;;;;;;0.80;0.73;;;7.80;72.50;;;;;;5092053;28;20458;-77
2021/01/14 00:35:31;;;;;;;0.97;0.87;;;7.70;72.40;;;;;;5084913;28;20503;-78
2021/01/14 00:37:57;;;;;;;3.90;0.80;;;7.70;72.50;;;;;;5092662;28;20460;-76
2021/01/14 00:40:25;;;;;;;1.07;0.97;;;7.60;72.70;;;;;;5092274;28;20456;-77
2021/01/14 00:42:56;;;;;;;1.30;1.00;;;7.60;73.10;;;;;;5090792;28;20878;-77
2021/01/14 00:45:25;;;;;;;1.10;1.00;;;7.70;73.20;;;;;;5091339;28;20461;-77
2021/01/14 00:47:52;;;;;;;1.30;1.20;;;7.70;73.30;;;;;;5092222;28;20486;-79
2021/01/14 00:50:18;;;;;;;0.80;0.80;;;7.70;73.10;;;;;;5091645;28;20452;-78
2021/01/14 00:52:45;;;;;;;1.20;1.10;;;7.70;72.70;;;;;;5081487;28;20477;-78
2021/01/14 00:55:14;;;;;;;3.73;2.23;;;7.70;72.60;;;;;;5090510;28;20448;-78
2021/01/14 00:57:40;;;;;;;1.20;1.10;;;7.70;72.50;;;;;;5092118;28;20577;-78
2021/01/14 01:00:09;;;;;;;2.17;1.30;;;7.70;72.70;;;;;;5092847;28;20460;-78
2021/01/14 01:02:39;;;;;;;1.07;1.07;;;7.70;72.90;;;;;;5095958;28;20833;-79
2021/01/14 01:05:06;;;;;;;1.03;1.03;;;7.70;72.90;;;;;;5095897;28;20453;-78
2021/01/14 01:07:33;;;;;;;1.53;1.20;;;7.80;73.00;;;;;;5094046;28;20875;-78
2021/01/14 01:09:59;;;;;;;1.27;1.17;;;7.70;72.80;;;;;;5095439;28;20480;-78
2021/01/14 01:12:26;;;;;;;1.37;0.90;;;7.70;72.60;;;;;;5096086;28;20448;-78
2021/01/14 01:14:52;;;;;;;1.67;1.57;;;7.70;72.60;;;;;;5089563;28;20863;-78
2021/01/14 01:17:19;;;;;;;2.00;1.47;;;7.70;72.70;;;;;;5095240;28;20490;-79
2021/01/14 01:19:46;;;;;;;1.43;1.30;;;7.70;72.90;;;;;;5095884;28;20464;-77
2021/01/14 01:22:13;;;;;;;2.30;1.60;;;7.70;72.60;;;;;;5095748;28;20453;-77
2021/01/14 01:24:39;;;;;;;2.50;2.00;;;7.70;72.20;;;;;;5095316;28;20978;-78
2021/01/14 01:27:06;;;;;;;1.47;1.37;;;7.70;72.50;;;;;;5095566;28;20448;-77
2021/01/14 01:29:32;;;;;;;2.27;2.07;;;7.60;72.60;;;;;;5090285;28;20453;-78
2021/01/14 01:31:59;;;;;;;2.33;2.13;;;7.70;72.90;;;;;;5075414;28;20456;-78
2021/01/14 01:34:25;;;;;;;2.50;2.00;;;7.70;72.90;;;;;;5083260;28;20461;-78
2021/01/14 01:36:53;;;;;;;2.30;2.10;;;7.70;72.70;;;;;;5095712;28;20905;-78
2021/01/14 01:39:19;;;;;;;3.60;2.47;;;7.70;72.80;;;;;;5095182;28;20448;-78
2021/01/14 01:41:46;;;;;;;3.00;2.63;;;7.70;72.80;;;;;;5095467;28;20450;-78
2021/01/14 01:44:13;;;;;;;2.97;2.67;;;7.70;72.80;;;;;;5094924;28;20460;-78
2021/01/14 01:46:40;;;;;;;3.10;2.77;;;7.70;72.80;;;;;;5095010;28;20991;-76
2021/01/14 01:49:07;;;;;;;2.73;2.50;;;7.70;72.70;;;;;;5095127;28;20454;-76
2021/01/14 01:51:38;;;;;;;3.07;2.70;;;7.70;72.40;;;;;;5095132;28;20948;-76
2021/01/14 01:54:07;;;;;;;3.00;2.70;;;7.80;72.40;;;;;;5095108;28;20450;-78
2021/01/14 01:56:34;;;;;;;2.80;2.63;;;7.80;72.30;;;;;;5095180;28;20486;-76
2021/01/14 01:59:01;;;;;;;3.13;2.83;;;7.80;72.00;;;;;;5094706;28;20971;-76
2021/01/14 02:01:28;;;;;;;2.80;2.60;;;7.80;71.90;;;;;;5093235;28;20504;-78
2021/01/14 02:03:55;;;;;;;3.57;2.80;;;7.80;72.00;;;;;;5081416;28;20447;-77
2021/01/14 02:06:22;;;;;;;2.67;2.20;;;7.80;72.10;;;;;;5094150;28;20461;-77
2021/01/14 02:08:53;;;;;;;2.37;2.27;;;7.80;72.20;;;;;;5094866;28;20849;-77
2021/01/14 02:11:27;;;;;;;2.80;2.30;;;7.70;71.60;;;;;;5094551;28;20449;-79
2021/01/14 02:14:07;;;;;;;2.77;2.37;;;7.70;71.60;;;;;;5094628;28;20803;-77
2021/01/14 02:16:37;;;;;;;2.30;2.10;;;7.70;71.40;;;;;;5094011;28;20496;-77
2021/01/14 02:19:10;;;;;;;2.30;2.10;;;7.70;71.10;;;;;;5094712;28;20464;-77
2021/01/14 02:21:39;;;;;;;2.03;1.93;;;7.80;71.20;;;;;;5094514;28;20480;-77
2021/01/14 02:24:09;;;;;;;2.50;2.30;;;7.70;70.40;;;;;;5094472;28;20472;-77
2021/01/14 02:26:39;;;;;;;2.47;2.27;;;7.70;70.30;;;;;;5093608;28;20458;-77
2021/01/14 02:29:06;;;;;;;2.30;2.13;;;7.70;70.60;;;;;;5094225;28;20461;-78
2021/01/14 02:31:33;;;;;;;2.50;2.30;;;7.70;70.80;;;;;;5094082;28;20514;-77
2021/01/14 02:33:59;;;;;;;2.77;2.57;;;7.70;70.80;;;;;;5091711;28;20463;-77
2021/01/14 02:36:27;;;;;;;2.63;2.43;;;7.70;70.40;;;;;;5093790;28;20481;-77
2021/01/14 02:38:55;;;;;;;2.60;2.40;;;7.60;69.50;;;;;;5093956;28;20454;-77
2021/01/14 02:41:21;;;;;;;3.13;2.30;;;7.60;70.70;;;;;;5094402;28;20454;-76
2021/01/14 02:43:49;;;;;;;2.43;2.23;;;7.60;70.20;;;;;;5093648;28;20977;-77
2021/01/14 02:46:17;;;;;;;2.83;2.60;;;7.60;69.80;;;;;;5093847;28;20460;-76
2021/01/14 02:48:46;;;;;;;1.97;1.87;;;7.60;70.00;;;;;;5093645;28;20885;-77
2021/01/14 02:51:18;;;;;;;2.30;2.20;;;7.60;70.10;;;;;;5093747;28;20470;-77
2021/01/14 02:53:45;;;;;;;3.10;2.43;;;7.60;69.80;;;;;;5073155;28;20437;-78
2021/01/14 02:56:12;;;;;;;2.90;2.70;;;7.60;70.00;;;;;;5077287;28;20489;-78
2021/01/14 02:58:39;;;;;;;2.70;2.20;;;7.60;70.20;;;;;;5093645;28;20502;-77
2021/01/14 03:01:07;;;;;;;2.70;2.50;;;7.60;69.80;;;;;;5093689;28;20449;-78
2021/01/14 03:03:33;;;;;;;2.80;2.20;;;7.60;69.10;;;;;;5093713;28;20444;-77
2021/01/14 03:06:00;;;;;;;3.07;2.47;;;7.60;69.60;;;;;;5093813;28;20449;-77
2021/01/14 03:08:27;;;;;;;3.20;2.90;;;7.60;69.70;;;;;;5093556;28;20472;-77
2021/01/14 03:10:53;;;;;;;2.40;2.20;;;7.60;69.80;;;;;;5080575;28;20993;-77
2021/01/14 03:13:20;;;;;;;2.70;2.50;;;7.60;69.90;;;;;;5093964;28;20453;-78
2021/01/14 03:15:46;;;;;;;3.10;2.83;;;7.70;70.00;;;;;;5093495;28;20518;-78
2021/01/14 03:18:13;;;;;;;4.60;2.43;;;7.70;70.00;;;;;;5093239;28;20965;-77
2021/01/14 03:20:40;;;;;;;2.37;2.17;;;7.70;70.00;;;;;;5091719;28;20471;-77
2021/01/14 03:23:06;;;;;;;2.90;2.53;;;7.70;70.10;;;;;;5092727;28;20951;-78
2021/01/14 03:25:33;;;;;;;3.80;2.50;;;7.70;70.10;;;;;;5093653;28;20582;-77
2021/01/14 03:27:59;;;;;;;2.80;2.50;;;7.70;69.90;;;;;;5093050;28;20507;-77
2021/01/14 03:30:26;;;;;;;2.40;2.20;;;7.60;69.80;;;;;;5093065;28;20464;-76
2021/01/14 03:32:55;;;;;;;3.43;2.17;;;7.60;69.80;;;;;;5093034;28;20446;-76
2021/01/14 03:35:23;;;;;;;2.80;2.50;;;7.60;69.90;;;;;;5092829;28;20500;-77
2021/01/14 03:37:50;;;;;;;2.50;2.30;;;7.70;69.90;;;;;;5092957;28;20987;-78
2021/01/14 03:40:16;;;;;;;2.50;2.30;;;7.60;69.80;;;;;;5092943;28;20486;-77
2021/01/14 03:42:43;;;;;;;2.37;2.10;;;7.60;69.80;;;;;;5092689;28;20947;-79
2021/01/14 03:45:11;;;;;;;3.17;2.50;;;7.60;69.60;;;;;;5092609;28;20461;-78
2021/01/14 03:47:37;;;;;;;4.00;2.93;;;7.60;69.60;;;;;;5090929;28;20459;-77
2021/01/14 03:50:05;;;;;;;2.53;2.20;;;7.60;69.50;;;;;;5092901;28;20466;-81
2021/01/14 03:52:32;;;;;;;3.23;2.63;;;7.60;69.60;;;;;;5082494;28;20444;-81
2021/01/14 03:54:59;;;;;;;4.43;2.67;;;7.50;69.60;;;;;;5092639;28;20447;-77
2021/01/14 03:57:25;;;;;;;4.00;2.77;;;7.50;70.60;;;;;;5093028;28;20906;-78
2021/01/14 03:59:52;;;;;;;4.10;3.10;;;7.50;70.10;;;;;;5092012;28;20502;-79
2021/01/14 04:02:18;;;;;;;2.27;2.07;;;7.50;70.00;;;;;;5092577;28;20471;-78
2021/01/14 04:04:45;;;;;;;2.37;2.17;;;7.50;69.80;;;;;;5092624;28;20810;-79
2021/01/14 04:07:13;;;;;;;2.83;2.63;;;7.40;69.00;;;;;;5092699;28;20449;-78
2021/01/14 04:09:42;;;;;;;2.77;2.30;;;7.40;69.20;;;;;;5091825;28;20494;-79
2021/01/14 04:12:09;;;;;;;5.50;2.63;;;7.30;69.40;;;;;;5092148;28;20948;-78
2021/01/14 04:14:35;;;;;;;2.70;2.07;;;7.30;69.80;;;;;;5090695;28;20485;-78
2021/01/14 04:17:02;;;;;;;2.70;2.50;;;7.30;69.80;;;;;;5092062;28;21030;-79
2021/01/14 04:19:28;;;;;;;3.00;2.70;;;7.30;70.00;;;;;;5092212;28;20456;-79
2021/01/14 04:21:55;;;;;;;3.90;3.07;;;7.30;70.40;;;;;;5072420;28;20450;-79
2021/01/14 04:24:22;;;;;;;3.80;2.73;;;7.30;70.20;;;;;;5080615;28;21015;-79
2021/01/14 04:26:49;;;;;;;3.23;2.93;;;7.40;70.30;;;;;;5092070;28;20465;-78
2021/01/14 04:29:16;;;;;;;3.03;2.83;;;7.40;70.40;;;;;;5091270;28;20447;-78
2021/01/14 04:31:42;;;;;;;3.00;2.37;;;7.40;70.40;;;;;;5091407;28;20448;-79
2021/01/14 04:34:09;;;;;;;3.17;2.90;;;7.40;70.30;;;;;;5091313;28;20452;-79
2021/01/14 04:36:35;;;;;;;4.40;3.10;;;7.40;70.20;;;;;;5095867;28;21021;-79
2021/01/14 04:39:03;;;;;;;3.60;2.57;;;7.40;70.50;;;;;;5096051;28;20447;-79
2021/01/14 04:41:40;;;;;;;3.23;2.90;;;7.40;70.60;;;;;;5094438;28;20456;-79
2021/01/14 04:44:08;;;;;;;4.40;3.80;;;7.40;70.80;;;;;;5095575;28;20464;-79
2021/01/14 04:46:39;;;;;;;3.93;3.13;;;7.40;70.80;;;;;;5096501;28;20453;-78
2021/01/14 04:49:07;;;;;;;5.60;4.23;;;7.40;70.70;;;;;;5095691;28;20454;-78
2021/01/14 04:51:34;;;;;;;4.00;3.20;;;7.40;70.70;;;;;;5095592;28;20542;-78
2021/01/14 04:54:02;;;;;;;3.80;2.87;;;7.40;70.60;;;;;;5095629;28;20448;-79
2021/01/14 04:56:34;;;;;;;3.73;3.37;;;7.40;70.90;;;;;;5094947;28;20522;-79
2021/01/14 04:59:04;;;;;;;4.00;3.10;;;7.40;71.00;;;;;;5096006;28;20524;-79
2021/01/14 05:01:35;;;;;;;4.90;3.37;;;7.40;71.20;;;;;;5094788;28;20499;-78
2021/01/14 05:04:05;;;;;;;8.13;2.80;;;7.30;71.10;;;;;;5095762;28;20502;-78
2021/01/14 05:06:35;;;;;;;3.40;3.10;;;7.30;71.10;;;;;;5093576;28;20536;-77
2021/01/14 05:09:04;;;;;;;3.40;3.10;;;7.30;71.90;;;;;;5095465;28;20555;-78
2021/01/14 05:11:40;;;;;;;3.00;2.63;;;7.20;71.00;;;;;;5095120;28;20979;-79
2021/01/14 05:14:07;;;;;;;3.80;3.50;;;7.20;71.10;;;;;;5092840;28;20459;-78
2021/01/14 05:16:35;;;;;;;5.20;4.00;;;7.20;71.10;;;;;;5094941;28;20571;-78
2021/01/14 05:19:03;;;;;;;4.30;3.77;;;7.20;71.20;;;;;;5094255;28;20456;-78
2021/01/14 05:21:33;;;;;;;4.27;3.83;;;7.20;71.00;;;;;;5093254;28;20498;-79
2021/01/14 05:24:10;;;;;;;4.80;4.40;;;7.20;71.00;;;;;;5095725;28;20891;-78
2021/01/14 05:26:37;;;;;;;3.53;3.23;;;7.00;70.10;;;;;;5088238;28;20451;-79
2021/01/14 05:29:17;;;;;;;6.23;4.13;;;7.00;70.90;;;;;;5095497;28;20447;-78
2021/01/14 05:31:45;;;;;;;4.20;3.80;;;7.00;71.50;;;;;;5092773;28;20467;-78
2021/01/14 05:34:14;;;;;;;3.87;3.57;;;7.00;71.70;;;;;;5093468;28;20498;-78
2021/01/14 05:36:53;;;;;;;4.00;3.60;;;7.00;71.70;;;;;;5087307;28;20577;-79
2021/01/14 05:39:20;;;;;;;4.97;3.83;;;7.00;71.80;;;;;;5094630;28;20441;-79
2021/01/14 05:41:48;;;;;;;6.13;3.90;;;7.00;71.90;;;;;;5094848;28;20454;-78
2021/01/14 05:44:15;;;;;;;4.40;3.50;;;7.00;71.80;;;;;;5095323;28;20547;-78
2021/01/14 05:46:42;;;;;;;3.97;3.47;;;7.10;71.60;;;;;;5093548;28;20445;-78
2021/01/14 05:49:11;;;;;;;4.20;3.77;;;7.10;71.50;;;;;;5095046;28;20446;-77
2021/01/14 05:51:38;;;;;;;3.50;3.20;;;7.10;71.40;;;;;;5093831;28;20450;-78
2021/01/14 05:54:06;;;;;;;4.83;3.87;;;7.10;71.40;;;;;;5094578;28;21011;-78
2021/01/14 05:56:38;;;;;;;4.17;3.53;;;7.10;71.30;;;;;;5094255;28;20832;-78
2021/01/14 05:59:07;;;;;;;4.33;3.93;;;7.10;71.50;;;;;;5093202;28;20504;-78
2021/01/14 06:01:35;;;;;;;5.10;3.10;;;7.10;71.60;;;;;;5093204;28;20458;-78
2021/01/14 06:04:17;;;;;;;5.47;4.17;;;7.10;71.60;;;;;;5093181;28;20454;-78
2021/01/14 06:06:44;;;;;;;5.50;3.90;;;7.10;71.30;;;;;;5084715;28;20489;-78
2021/01/14 06:09:12;;;;;;;4.37;3.97;;;7.00;71.50;;;;;;5094398;28;20464;-80
2021/01/14 06:11:39;;;;;;;4.20;3.80;;;7.10;71.60;;;;;;5094266;28;21225;-79
2021/01/14 06:14:06;;;;;;;8.57;4.00;;;7.10;71.60;;;;;;5094385;28;20485;-79
2021/01/14 06:16:49;;;;;;;4.13;3.73;;;7.10;71.50;;;;;;5092272;28;20484;-79
2021/01/14 06:19:17;;;;;;;3.47;2.83;;;7.20;71.50;;;;;;5082670;28;20492;-81
2021/01/14 06:21:45;;;;;;;4.20;3.80;;;7.10;71.30;;;;;;5090067;28;20519;-80
2021/01/14 06:24:24;;;;;;;4.93;3.63;;;7.10;71.10;;;;;;5094544;28;20962;-79
2021/01/14 06:26:52;;;;;;;5.10;3.80;;;7.10;71.10;;;;;;5092777;28;20825;-78
2021/01/14 06:29:21;;;;;;;3.90;3.50;;;7.10;71.30;;;;;;5091870;28;20946;-80
2021/01/14 06:31:47;;;;;;;3.55;3.20;;;7.10;71.30;;;;;;5085882;28;20453;-78
2021/01/14 06:34:17;;;;;;;3.83;3.53;;;7.20;71.50;;;;;;5086888;28;20196;-78
2021/01/14 06:36:48;;;;;;;4.23;3.50;;;7.20;71.40;;;;;;5088494;28;20489;-80
2021/01/14 06:39:16;;;;;;;3.57;3.10;;;7.20;71.30;;;;;;5088993;28;20456;-77
2021/01/14 06:41:44;;;;;;;4.97;3.53;;;7.20;71.10;;;;;;5089183;28;20451;-77
2021/01/14 06:44:12;;;;;;;3.70;3.40;;;7.20;70.90;;;;;;5084799;28;20454;-78
2021/01/14 06:46:39;;;;;;;5.30;3.40;;;7.20;70.80;;;;;;5073526;28;20465;-77
2021/01/14 06:49:14;;;;;;;4.20;3.90;;;7.20;70.70;;;;;;5088842;28;20950;-78
2021/01/14 06:52:04;;;;;;;3.70;3.40;;;7.20;70.60;;;;;;5090612;28;20478;-78
2021/01/14 06:54:39;;;;;;;4.57;4.17;;;7.20;70.80;;;;;;5093254;28;20451;-77
2021/01/14 06:57:13;;;;;;;4.80;3.97;;;7.20;70.80;;;;;;5090505;28;20496;-78
2021/01/14 06:59:39;;;;;;;6.57;4.67;;;7.20;71.40;;;;;;5091635;28;20486;-78
2021/01/14 07:02:46;;;;;;;4.00;3.60;;;7.10;70.60;;;;;;5093385;28;20452;-78
2021/01/14 07:05:24;;;;;;;5.30;4.43;;;7.20;70.70;;;;;;5084855;28;20451;-78
2021/01/14 07:08:12;;;;;;;6.00;4.17;;;7.20;70.70;;;;;;5091625;28;20451;-78
2021/01/14 07:11:00;;;;;;;4.00;3.70;;;7.10;70.80;;;;;;5088708;28;20500;-78
2021/01/14 07:13:31;;;;;;;4.93;3.67;;;7.10;71.00;;;;;;5092308;28;20458;-78
2021/01/14 07:15:59;;;;;;;3.50;3.20;;;7.10;71.00;;;;;;5092432;28;20518;-78
2021/01/14 07:18:29;;;;;;;4.27;3.90;;;7.00;70.40;;;;;;5089128;28;20479;-78
2021/01/14 07:21:01;;;;;;;4.40;4.00;;;6.90;69.50;;;;;;5093529;28;20452;-77
2021/01/14 07:23:30;;;;;;;5.73;4.47;;;6.90;70.00;;;;;;5091198;28;20511;-79
2021/01/14 07:25:59;;;;;;;4.43;4.03;;;6.90;70.30;;;;;;5090287;28;20473;-79
2021/01/14 07:28:25;;;;;;;4.93;4.27;;;6.90;70.60;;;;;;5085898;28;20497;-79
2021/01/14 07:30:52;;;;;;;4.30;3.90;;;6.90;70.60;;;;;;5092515;28;20466;-79
2021/01/14 07:33:27;;;;;;;5.53;5.10;;;7.00;70.60;;;;;;5091702;28;20450;-78
2021/01/14 07:35:55;;;;;;;5.67;5.17;;;7.00;70.50;;;;;;5091081;28;20460;-79
2021/01/14 07:38:22;;;;;;;5.13;4.63;;;7.00;71.30;;;;;;5092462;28;20489;-79
2021/01/14 07:40:54;;;;;;;6.87;4.53;;;7.00;70.70;;;;;;5090615;28;20442;-79
2021/01/14 07:43:32;;;;;;;5.00;4.60;;;7.10;70.60;;;;;;5092091;28;20480;-78
2021/01/14 07:46:20;;;;;;;6.00;4.43;;;7.10;70.20;;;;;;5083451;28;20462;-79
2021/01/14 07:48:48;;;;;;;6.00;4.60;;;7.10;70.00;;;;;;5091602;28;20495;-79
2021/01/14 07:51:15;;;;;;;5.27;4.73;;;7.10;70.10;;;;;;5090591;28;20458;-80
2021/01/14 07:53:42;;;;;;;6.20;5.30;;;7.10;70.10;;;;;;5079811;28;20511;-80
2021/01/14 07:56:26;;;;;;;9.00;5.30;;;7.20;70.20;;;;;;5087234;28;20448;-77
2021/01/14 07:58:58;;;;;;;5.30;4.80;;;7.20;70.30;;;;;;5087711;28;20445;-79
2021/01/14 08:01:25;;;;;;;4.93;4.57;;;7.20;70.30;;;;;;5091805;28;20586;-76
2021/01/14 08:03:52;;;;;;;8.70;6.30;;;7.10;70.30;;;;;;5091230;28;20448;-80
2021/01/14 08:06:22;;;;;;;5.20;4.50;;;7.10;70.30;;;;;;5092345;28;20448;-80
2021/01/14 08:08:56;;;;;;;6.10;5.30;;;7.10;70.20;;;;;;5091307;28;20468;-77
2021/01/14 08:11:25;;;;;;;5.33;4.93;;;7.10;70.20;;;;;;5092197;28;21281;-77
2021/01/14 08:14:22;;;;;;;4.23;3.90;;;7.10;70.40;;;;;;5089883;28;20447;-76
2021/01/14 08:16:50;;;;;;;6.17;5.57;;;7.00;69.70;;;;;;5092452;28;20479;-76
2021/01/14 08:19:35;;;;;;;5.87;5.27;;;7.00;70.00;;;;;;5089877;28;20507;-76
2021/01/14 08:22:10;;;;;;;5.27;4.80;;;7.00;69.60;;;;;;5087653;28;20450;-76
2021/01/14 08:24:42;;;;;;;5.40;4.93;;;7.00;69.80;;;;;;5088654;28;20450;-76
2021/01/14 08:30:07;;;;;;;4.83;4.40;;;7.10;69.80;;;;;;5086808;28;20449;-78
2021/01/14 08:32:49;;;;;;;8.53;4.30;;;7.10;69.30;;;;;;5076798;28;20454;-78
2021/01/14 08:35:22;;;;;;;6.30;4.93;;;7.10;69.30;;;;;;5091139;28;20881;-79
2021/01/14 08:37:57;;;;;;;5.57;5.07;;;7.10;68.80;;;;;;5091238;28;20989;-79
2021/01/14 08:40:29;;;;;;;5.90;5.40;;;7.00;68.70;;;;;;5084891;28;20452;-77
2021/01/14 08:43:08;;;;;;;8.83;6.30;;;7.00;67.90;;;;;;5086803;28;20457;-77
2021/01/14 08:45:43;;;;;;;8.93;5.40;;;7.00;68.70;;;;;;5090594;28;20515;-78
2021/01/14 08:48:11;;;;;;;5.60;4.93;;;6.90;68.80;;;;;;5089005;28;20550;-76
2021/01/14 08:50:45;;;;;;;5.63;5.10;;;7.00;68.70;;;;;;5090828;28;20518;-78
2021/01/14 08:53:22;;;;;;;6.20;5.60;;;7.00;68.90;;;;;;5090455;28;20478;-78
2021/01/14 08:56:37;;;;;;;5.00;4.60;;;7.00;69.00;;;;;;5090960;28;20874;-77
2021/01/14 08:59:18;;;;;;;6.37;4.80;;;7.10;69.20;;;;;;5084724;28;20479;-79
2021/01/14 09:01:57;;;;;;;5.10;4.63;;;7.10;69.20;;;;;;5085490;28;20465;-78
2021/01/14 09:04:26;;;;;;;5.23;4.80;;;7.10;69.30;;;;;;5090165;28;20520;-78
2021/01/14 09:06:53;;;;;;;4.83;4.43;;;7.10;69.00;;;;;;5091250;28;20453;-79
2021/01/14 09:09:23;;;;;;;6.27;5.70;;;7.10;69.10;;;;;;5089177;28;20832;-79
2021/01/14 09:11:54;;;;;;;6.90;6.20;;;7.20;69.30;;;;;;5085637;28;20541;-78
2021/01/14 09:14:22;;;;;;;6.20;5.23;;;7.20;69.30;;;;;;5075806;28;20458;-78
2021/01/14 09:16:51;;;;;;;6.90;4.80;;;7.10;68.60;;;;;;5088051;28;20492;-78
2021/01/14 09:19:20;;;;;;;10.20;4.70;;;7.10;69.10;;;;;;5090761;28;20460;-79
2021/01/14 09:21:48;;;;;;;5.40;4.40;;;7.00;67.60;;;;;;5092380;28;20506;-77
2021/01/14 09:24:17;;;;;;;6.27;4.80;;;7.00;67.90;;;;;;5094734;28;20446;-78
2021/01/14 09:26:50;;;;;;;4.83;4.40;;;6.90;68.00;;;;;;5095459;28;20498;-79
2021/01/14 09:29:19;;;;;;;5.33;4.83;;;6.90;68.50;;;;;;5094282;28;20458;-80
2021/01/14 09:31:47;;;;;;;6.50;4.93;;;6.90;68.80;;;;;;5093455;28;20464;-77
2021/01/14 09:34:14;;;;;;;6.00;5.30;;;7.00;69.00;;;;;;5086705;28;20970;-77
2021/01/14 09:36:42;;;;;;;5.40;4.50;;;7.00;69.10;;;;;;5089247;28;20495;-78
2021/01/14 09:39:15;;;;;;;6.40;5.80;;;7.10;69.10;;;;;;5091105;28;20953;-78
2021/01/14 09:41:41;;;;;;;4.93;4.30;;;7.10;68.90;;;;;;5088283;28;20444;-78
2021/01/14 09:44:10;;;;;;;5.93;5.33;;;7.10;68.80;;;;;;5090097;28;20452;-79
2021/01/14 09:46:47;;;;;;;5.30;4.80;;;7.10;68.60;;;;;;5083139;28;20492;-79
2021/01/14 09:49:14;;;;;;;6.60;4.37;;;7.20;68.80;;;;;;5094408;28;20462;-79
2021/01/14 09:51:42;;;;;;;6.47;5.47;;;7.20;68.70;;;;;;5090568;28;20452;-78
2021/01/14 09:54:13;;;;;;;6.07;4.60;;;7.20;68.60;;;;;;5093609;28;20444;-78
2021/01/14 09:56:41;;;;;;;5.33;4.90;;;7.20;68.80;;;;;;5094557;28;20889;-79
2021/01/14 09:59:09;;;;;;;5.60;4.90;;;7.20;68.70;;;;;;5093349;28;20455;-78
2021/01/14 10:01:41;;;;;;;9.80;5.40;;;7.30;68.70;;;;;;5093627;28;20450;-79
2021/01/14 10:04:16;;;;;;;6.13;5.53;;;7.30;68.70;;;;;;5092795;28;20458;-79
2021/01/14 10:06:47;;;;;;;7.00;6.40;;;7.30;68.80;;;;;;5087628;28;20483;-79
2021/01/14 10:09:15;;;;;;;7.27;5.23;;;7.30;68.70;;;;;;5091592;28;20492;-77
2021/01/14 10:11:43;;;;;;;4.67;4.27;;;7.40;68.50;;;;;;5093478;28;20454;-78
2021/01/14 10:14:22;;;;;;;6.60;5.80;;;7.40;68.00;;;;;;5094276;28;20517;-77
2021/01/14 10:16:50;;;;;;;5.80;4.20;;;7.50;67.50;;;;;;5091097;28;20918;-77
2021/01/14 10:19:19;;;;;;;5.40;4.90;;;7.50;67.20;;;;;;5093729;28;20515;-81
2021/01/14 10:21:46;;;;;;;4.70;4.17;;;7.50;66.80;;;;;;5093706;28;20449;-80
2021/01/14 10:24:22;;;;;;;5.63;3.40;;;7.50;66.50;;;;;;5093832;28;20473;-77
2021/01/14 10:26:49;;;;;;;4.90;3.70;;;7.50;65.50;;;;;;5093034;28;20957;-81
2021/01/14 10:29:40;;;;;;;5.50;4.33;;;7.50;64.70;;;;;;5094341;28;20449;-80
2021/01/14 10:32:08;;;;;;;10.83;3.70;;;7.50;65.00;;;;;;5094118;28;20445;-79
2021/01/14 10:34:49;;;;;;;6.03;3.90;;;7.50;65.40;;;;;;5093520;28;20537;-79
2021/01/14 10:37:23;;;;;;;7.30;4.40;;;7.60;65.10;;;;;;5091512;28;20477;-80
2021/01/14 10:39:50;;;;;;;7.87;4.90;;;7.50;64.80;;;;;;5092284;28;20464;-78
2021/01/14 10:42:28;;;;;;;4.80;3.63;;;7.50;65.20;;;;;;5094339;28;20456;-80
2021/01/14 10:44:55;;;;;;;7.03;4.20;;;7.50;65.00;;;;;;5092619;28;20497;-80
2021/01/14 10:47:22;;;;;;;4.90;4.20;;;7.60;65.00;;;;;;5092679;28;20447;-81
2021/01/14 10:49:50;;;;;;;7.13;4.20;;;7.50;64.60;;;;;;5093888;28;20449;-78
2021/01/14 10:52:18;;;;;;;7.03;4.20;;;7.60;64.60;;;;;;5080282;28;20459;-79
2021/01/14 10:55:36;;;;;;;14.60;4.73;;;7.70;64.50;;;;;;5084374;28;20452;-80
2021/01/14 10:58:05;;;;;;;6.10;5.60;;;7.70;64.20;;;;;;5091793;28;20488;-81
2021/01/14 11:00:44;;;;;;;7.37;4.33;;;7.70;64.00;;;;;;5093298;28;20482;-78
2021/01/14 11:03:20;;;;;;;6.40;4.50;;;7.80;63.50;;;;;;5088786;28;20457;-80
2021/01/14 11:05:49;;;;;;;6.27;4.50;;;7.80;63.50;;;;;;5092608;28;20448;-80
2021/01/14 11:08:26;;;;;;;6.40;4.90;;;7.90;63.30;;;;;;5092333;28;20502;-81
2021/01/14 11:11:04;;;;;;;5.60;4.57;;;7.90;62.90;;;;;;5091297;28;20501;-81
2021/01/14 11:13:53;;;;;;;5.60;4.50;;;7.80;63.00;;;;;;5092378;28;20571;-82
2021/01/14 11:16:26;;;;;;;8.93;5.30;;;7.80;62.60;;;;;;5092299;28;20564;-81
2021/01/14 11:19:11;;;;;;;6.83;4.97;;;7.80;62.50;;;;;;5091743;28;20448;-83
2021/01/14 11:21:42;;;;;;;5.13;4.70;;;7.90;62.70;;;;;;5089875;28;20902;-80
2021/01/14 11:27:09;;;;;;;5.37;4.83;;;7.80;62.70;;;;;;5090762;28;20452;-82
2021/01/14 11:29:48;;;;;;;6.87;5.80;;;7.80;62.90;;;;;;5092516;28;20913;-82
2021/01/14 11:32:35;;;;;;;5.13;4.53;;;7.80;63.10;;;;;;5087042;28;20449;-81
2021/01/14 11:35:02;;;;;;;6.13;5.50;;;7.70;62.20;;;;;;5092442;28;20512;-80
2021/01/14 11:37:32;;;;;;;8.30;5.80;;;7.70;62.80;;;;;;5087618;28;20492;-82
2021/01/14 11:40:29;;;;;;;6.43;5.80;;;7.70;63.00;;;;;;5090457;28;20454;-87
2021/01/14 11:43:09;;;;;;;10.00;5.77;;;7.80;62.60;;;;;;5073757;28;20452;-84
2021/01/14 11:45:48;;;;;;;4.97;4.43;;;7.80;62.30;;;;;;5091043;28;20531;-82
2021/01/14 11:51:49;;;;;;;6.13;5.00;;;7.90;61.90;;;;;;5071926;28;20458;-83
2021/01/14 11:54:17;;;;;;;7.93;6.33;;;7.90;61.70;;;;;;5072566;28;20538;-80
2021/01/14 11:56:51;;;;;;;5.83;5.33;;;7.90;61.70;;;;;;5085173;28;20462;-84
2021/01/14 11:59:17;;;;;;;5.73;5.27;;;8.00;62.60;;;;;;5080525;28;20460;-79
2021/01/14 12:02:03;;;;;;;6.70;5.30;;;8.00;61.80;;;;;;5094980;28;20464;-83
2021/01/14 12:04:30;;;;;;;5.27;4.63;;;8.10;62.30;;;;;;5087507;28;20468;-80
2021/01/14 12:07:01;;;;;;;4.70;4.10;;;8.10;61.40;;;;;;5091029;28;20466;-80
2021/01/14 12:09:32;;;;;;;5.37;4.87;;;8.10;61.10;;;;;;5091862;28;20565;-80
2021/01/14 12:31:45;;;;;;;4.57;3.80;;;8.10;58.70;;;;;;4902623;29;20445;-85
2021/01/14 12:40:30;;;;;;;5.73;4.67;;;8.30;58.90;;;;;;4930392;28;20492;-83
2021/01/14 12:43:43;;;;;;;9.90;4.70;;;8.40;58.70;;;;;;4989547;28;20458;-82
2021/01/14 12:46:24;;;;;;;5.53;4.30;;;8.40;58.70;;;;;;4950223;28;20466;-82
2021/01/14 12:59:03;;;;;;;6.23;4.13;;;8.20;58.60;;;;;;4983633;28;20986;-82
2021/01/14 13:02:20;;;;;;;4.90;4.40;;;8.20;58.30;;;;;;4975311;28;21033;-82
2021/01/14 13:04:58;;;;;;;5.90;4.30;;;8.20;58.40;;;;;;5081527;28;20521;-81
2021/01/14 13:08:13;;;;;;;5.40;3.97;;;8.20;58.70;;;;;;5093845;28;20461;-82
2021/01/14 13:10:43;;;;;;;7.00;4.00;;;8.30;58.10;;;;;;5086773;28;20453;-82
2021/01/14 13:13:31;;;;;;;7.10;5.23;;;8.30;57.60;;;;;;5092945;28;20464;-82
2021/01/14 13:16:24;;;;;;;5.50;5.00;;;8.50;57.70;;;;;;5075187;28;20462;-82
2021/01/14 13:19:17;;;;;;;5.43;3.97;;;8.50;57.30;;;;;;5073165;28;20491;-83
2021/01/14 13:24:36;;;;;;;3.93;3.63;;;8.40;56.50;;;;;;5075626;28;20942;-82
2021/01/14 13:27:08;;;;;;;4.27;3.87;;;8.40;56.50;;;;;;5094799;28;20445;-81
2021/01/14 13:30:28;;;;;;;5.73;3.60;;;8.30;56.20;;;;;;5094719;28;20993;-84
2021/01/14 13:33:21;;;;;;;5.77;4.50;;;8.30;56.70;;;;;;5031769;28;20448;-83
2021/01/14 13:36:13;;;;;;;3.97;3.63;;;8.20;57.10;;;;;;5032304;28;20550;-82
2021/01/14 13:44:57;;;;;;;4.47;3.77;;;8.20;56.70;;;;;;5075847;28;20436;-84
2021/01/14 13:47:29;;;;;;;4.40;4.00;;;8.10;57.00;;;;;;5093263;28;20491;-81
2021/01/14 14:00:13;;;;;;;6.10;3.70;;;8.00;57.30;;;;;;5024649;28;20461;-84
2021/01/14 14:05:38;;;;;;;5.40;4.23;;;7.80;57.30;;;;;;5030254;28;20458;-81
2021/01/14 14:08:10;;;;;;;4.37;3.67;;;7.80;57.80;;;;;;5075740;28;20480;-79
2021/01/14 14:10:44;;;;;;;4.47;4.07;;;7.70;57.90;;;;;;5091576;28;20509;-79
2021/01/14 14:13:11;;;;;;;7.07;4.60;;;7.70;58.00;;;;;;5091923;28;20567;-79
2021/01/14 14:15:45;;;;;;;5.00;4.30;;;7.70;58.20;;;;;;5093659;28;20544;-82
2021/01/14 14:18:44;;;;;;;4.33;3.57;;;7.80;58.20;;;;;;5094011;28;20487;-82
2021/01/14 14:27:50;;;;;;;4.90;4.40;;;7.60;57.90;;;;;;4992780;28;20422;-83
2021/01/14 15:05:52;;;;;;;2.63;2.40;;;7.40;58.00;;;;;;5310564;23;20495;-86
2021/01/14 15:11:48;;;;;;;2.90;2.60;;;7.40;57.80;;;;;;4892274;29;20425;-83
2021/01/14 18:29:53;;;;;;;12.20;9.53;;;6.50;62.10;;;;;;4890618;29;20463;-87